createdAt,value
2018-08-09T00:00:55.368Z,91.31
2018-08-09T00:01:55.371Z,90.55
2018-08-09T00:02:55.379Z,91.31
2018-08-09T00:03:55.378Z,92.13
2018-08-09T00:04:55.380Z,92.52
2018-08-09T00:05:55.388Z,92.52
2018-08-09T00:06:55.391Z,92.81
2018-08-09T00:07:55.395Z,92.33
2018-08-09T00:08:55.398Z,92.61
2018-08-09T00:09:55.406Z,93.10
2018-08-09T00:10:55.410Z,93.10
2018-08-09T00:11:55.414Z,93.10
2018-08-09T00:12:55.415Z,93.10
2018-08-09T00:13:55.423Z,93.77
2018-08-09T00:14:55.424Z,93.00
2018-08-09T00:15:55.429Z,92.81
2018-08-09T00:16:55.439Z,93.38
2018-08-09T00:17:55.437Z,93.19
2018-08-09T00:18:55.446Z,93.19
2018-08-09T00:19:55.444Z,93.19
2018-08-09T00:20:55.448Z,93.19
2018-08-09T00:21:55.452Z,94.15
2018-08-09T00:22:55.456Z,94.54
2018-08-09T00:23:55.545Z,94.35
2018-08-09T00:24:55.465Z,95.02
2018-08-09T00:25:55.471Z,94.83
2018-08-09T00:26:55.478Z,95.50
2018-08-09T00:27:55.477Z,95.70
2018-08-09T00:28:55.480Z,95.70
2018-08-09T00:29:55.484Z,95.98
2018-08-09T00:30:55.489Z,96.08
2018-08-09T00:31:55.492Z,95.98
2018-08-09T00:32:55.498Z,96.56
2018-08-09T00:33:55.500Z,95.98
2018-08-09T00:34:55.506Z,95.40
2018-08-09T00:35:55.508Z,95.79
2018-08-09T00:36:55.519Z,95.50
2018-08-09T00:37:55.515Z,95.79
2018-08-09T00:38:55.520Z,95.60
2018-08-09T00:39:55.526Z,95.40
2018-08-09T00:40:55.537Z,95.89
2018-08-09T00:41:55.534Z,95.60
2018-08-09T00:42:55.536Z,95.70
2018-08-09T00:43:55.539Z,95.89
2018-08-09T00:44:55.543Z,96.17
2018-08-09T00:45:55.561Z,96.17
2018-08-09T00:46:55.552Z,96.75
2018-08-09T00:47:55.554Z,96.56
2018-08-09T00:48:55.560Z,96.56
2018-08-09T00:49:55.562Z,96.66
2018-08-09T00:50:55.567Z,96.94
2018-08-09T00:51:55.570Z,97.24
2018-08-09T00:52:55.578Z,97.81
2018-08-09T00:53:55.578Z,97.33
2018-08-09T00:54:55.584Z,98.10
2018-08-09T00:55:55.590Z,98.00
2018-08-09T00:56:55.590Z,98.19
2018-08-09T00:57:55.594Z,97.81
2018-08-09T00:58:55.597Z,98.00
2018-08-09T00:59:55.605Z,98.68
2018-08-09T01:00:55.604Z,98.00
2018-08-09T01:01:55.613Z,97.91
2018-08-09T01:02:55.615Z,98.29
2018-08-09T01:03:55.619Z,98.49
2018-08-09T01:04:55.628Z,98.87
2018-08-09T01:05:55.626Z,98.91
2018-08-09T01:06:55.653Z,99.26
2018-08-09T01:07:55.632Z,98.87
2018-08-09T01:08:55.639Z,98.96
2018-08-09T01:09:55.641Z,98.96
2018-08-09T01:10:55.646Z,98.39
2018-08-09T01:11:55.650Z,98.96
2018-08-09T01:12:55.652Z,99.11
2018-08-09T01:13:55.659Z,99.21
2018-08-09T01:14:55.662Z,99.16
2018-08-09T01:15:55.664Z,99.59
2018-08-09T01:16:55.668Z,99.78
2018-08-09T01:17:55.673Z,99.88
2018-08-09T01:18:55.677Z,99.99
2018-08-09T01:19:55.681Z,99.99
2018-08-09T01:20:55.687Z,99.99
2018-08-09T01:21:55.685Z,99.99
2018-08-09T01:22:55.690Z,99.99
2018-08-09T01:23:55.703Z,99.99
2018-08-09T01:24:55.699Z,99.99
2018-08-09T01:25:55.705Z,99.99
2018-08-09T01:26:55.708Z,99.99
2018-08-09T01:27:55.710Z,99.99
2018-08-09T01:28:55.714Z,99.78
2018-08-09T01:29:55.723Z,99.99
2018-08-09T01:30:55.723Z,99.68
2018-08-09T01:31:55.726Z,99.99
2018-08-09T01:32:55.836Z,99.01
2018-08-09T01:33:55.733Z,99.88
2018-08-09T01:34:55.736Z,99.83
2018-08-09T01:35:55.743Z,99.93
2018-08-09T01:36:55.743Z,99.83
2018-08-09T01:37:55.748Z,99.99
2018-08-09T01:38:55.757Z,99.99
2018-08-09T01:39:55.755Z,99.99
2018-08-09T01:40:55.762Z,99.99
2018-08-09T01:41:55.762Z,99.99
2018-08-09T01:42:55.766Z,99.64
2018-08-09T01:43:55.769Z,99.99
2018-08-09T01:44:55.773Z,99.99
2018-08-09T01:45:55.783Z,99.99
2018-08-09T01:46:55.784Z,99.99
2018-08-09T01:47:55.784Z,99.99
2018-08-09T01:48:55.796Z,99.99
2018-08-09T01:49:55.793Z,99.99
2018-08-09T01:50:55.798Z,99.99
2018-08-09T01:51:55.800Z,99.99
2018-08-09T01:52:55.804Z,99.99
2018-08-09T01:53:55.810Z,99.99
2018-08-09T01:54:55.813Z,99.99
2018-08-09T01:55:55.814Z,99.99
2018-08-09T01:56:55.822Z,99.99
2018-08-09T01:57:55.823Z,99.99
2018-08-09T01:58:55.828Z,99.99
2018-08-09T01:59:55.830Z,99.99
2018-08-09T02:00:55.833Z,99.99
2018-08-09T02:01:55.837Z,99.99
2018-08-09T02:02:55.842Z,99.99
2018-08-09T02:03:55.857Z,99.99
2018-08-09T02:04:55.900Z,99.99
2018-08-09T02:05:55.854Z,99.99
2018-08-09T02:06:55.857Z,99.99
2018-08-09T02:07:55.920Z,99.99
2018-08-09T02:08:55.863Z,99.99
2018-08-09T02:09:55.869Z,99.99
2018-08-09T02:10:55.872Z,99.99
2018-08-09T02:11:55.873Z,99.99
2018-08-09T02:12:55.877Z,99.99
2018-08-09T02:13:55.882Z,99.99
2018-08-09T02:14:55.896Z,99.99
2018-08-09T02:15:55.889Z,99.99
2018-08-09T02:16:55.952Z,99.99
2018-08-09T02:17:55.898Z,99.99
2018-08-09T02:18:55.902Z,99.99
2018-08-09T02:19:55.908Z,99.99
2018-08-09T02:20:55.907Z,99.99
2018-08-09T02:21:55.910Z,99.99
2018-08-09T02:22:55.919Z,99.99
2018-08-09T02:23:55.917Z,99.99
2018-08-09T02:24:55.922Z,99.99
2018-08-09T02:25:55.924Z,99.99
2018-08-09T02:26:55.931Z,99.99
2018-08-09T02:27:55.932Z,99.99
2018-08-09T02:28:55.936Z,99.99
2018-08-09T02:29:55.940Z,99.99
2018-08-09T02:30:55.946Z,99.99
2018-08-09T02:31:55.950Z,99.99
2018-08-09T02:32:55.951Z,99.99
2018-08-09T02:33:55.960Z,99.99
2018-08-09T02:34:55.959Z,99.99
2018-08-09T02:35:55.961Z,99.99
2018-08-09T02:36:55.965Z,99.99
2018-08-09T02:37:55.968Z,99.99
2018-08-09T02:38:55.971Z,99.99
2018-08-09T02:39:55.976Z,99.99
2018-08-09T02:40:55.977Z,99.99
2018-08-09T02:41:55.983Z,99.99
2018-08-09T02:42:56.017Z,99.99
2018-08-09T02:43:55.993Z,99.99
2018-08-09T02:44:56.044Z,99.99
2018-08-09T02:45:55.998Z,99.99
2018-08-09T02:46:56.007Z,99.99
2018-08-09T02:47:56.007Z,99.99
2018-08-09T02:48:56.058Z,99.99
2018-08-09T02:49:56.015Z,99.99
2018-08-09T02:50:56.030Z,99.99
2018-08-09T02:51:56.017Z,99.99
2018-08-09T02:52:56.020Z,99.99
2018-08-09T02:53:56.025Z,99.99
2018-08-09T02:54:56.033Z,99.99
2018-08-09T02:55:56.031Z,99.99
2018-08-09T02:56:56.032Z,99.99
2018-08-09T02:57:56.039Z,99.99
2018-08-09T02:58:56.055Z,99.99
2018-08-09T02:59:56.046Z,99.99
2018-08-09T03:00:56.066Z,99.99
2018-08-09T03:01:56.053Z,99.99
2018-08-09T03:02:56.057Z,99.99
2018-08-09T03:03:56.058Z,99.99
2018-08-09T03:04:56.096Z,99.99
2018-08-09T03:05:56.064Z,99.99
2018-08-09T03:06:56.107Z,99.99
2018-08-09T03:07:56.070Z,99.99
2018-08-09T03:08:56.095Z,99.99
2018-08-09T03:09:56.079Z,99.99
2018-08-09T03:10:56.112Z,99.99
2018-08-09T03:11:56.084Z,99.99
2018-08-09T03:12:56.088Z,99.99
2018-08-09T03:13:56.091Z,99.99
2018-08-09T03:14:56.094Z,99.99
2018-08-09T03:15:56.101Z,99.99
2018-08-09T03:16:56.104Z,99.99
2018-08-09T03:17:56.104Z,99.99
2018-08-09T03:18:56.114Z,99.99
2018-08-09T03:19:56.114Z,99.99
2018-08-09T03:20:56.132Z,99.99
2018-08-09T03:21:56.116Z,99.99
2018-08-09T03:22:56.824Z,99.99
2018-08-09T03:23:56.125Z,99.99
2018-08-09T03:24:56.132Z,99.99
2018-08-09T03:25:56.131Z,99.99
2018-08-09T03:26:56.145Z,99.99
2018-08-09T03:27:56.137Z,99.99
2018-08-09T03:28:56.183Z,99.99
2018-08-09T03:29:56.144Z,99.99
2018-08-09T03:30:56.148Z,99.99
2018-08-09T03:31:56.151Z,99.99
2018-08-09T03:32:56.153Z,99.99
2018-08-09T03:33:56.156Z,99.99
2018-08-09T03:34:56.159Z,99.99
2018-08-09T03:35:56.163Z,99.99
2018-08-09T03:36:56.169Z,99.99
2018-08-09T03:37:56.176Z,99.99
2018-08-09T03:38:56.173Z,99.99
2018-08-09T03:39:56.175Z,99.99
2018-08-09T03:40:56.179Z,99.99
2018-08-09T03:41:56.183Z,99.99
2018-08-09T03:42:56.185Z,99.99
2018-08-09T03:43:56.186Z,99.99
2018-08-09T03:44:56.191Z,99.99
2018-08-09T03:45:56.193Z,99.99
2018-08-09T03:46:56.221Z,99.99
2018-08-09T03:47:56.202Z,99.99
2018-08-09T03:48:56.205Z,99.99
2018-08-09T03:49:56.207Z,99.99
2018-08-09T03:50:56.210Z,99.99
2018-08-09T03:51:56.228Z,99.99
2018-08-09T03:52:56.217Z,99.99
2018-08-09T03:53:56.219Z,99.99
2018-08-09T03:54:56.223Z,99.99
2018-08-09T03:55:56.226Z,99.99
2018-08-09T03:56:56.230Z,99.99
2018-08-09T03:57:56.234Z,99.99
2018-08-09T03:58:56.235Z,99.99
2018-08-09T03:59:56.237Z,99.99
2018-08-09T04:00:56.241Z,99.99
2018-08-09T04:01:56.245Z,99.99
2018-08-09T04:02:56.251Z,99.99
2018-08-09T04:03:56.250Z,99.99
2018-08-09T04:04:56.253Z,99.99
2018-08-09T04:05:56.258Z,99.99
2018-08-09T04:06:56.261Z,99.99
2018-08-09T04:07:56.261Z,99.99
2018-08-09T04:08:56.266Z,99.99
2018-08-09T04:09:56.270Z,99.99
2018-08-09T04:10:56.275Z,99.99
2018-08-09T04:11:56.349Z,99.99
2018-08-09T04:12:56.278Z,99.99
2018-08-09T04:13:56.284Z,99.99
2018-08-09T04:14:56.286Z,99.99
2018-08-09T04:15:56.286Z,99.99
2018-08-09T04:16:56.292Z,99.99
2018-08-09T04:17:56.299Z,99.99
2018-08-09T04:18:56.301Z,99.99
2018-08-09T04:19:56.304Z,99.99
2018-08-09T04:20:56.308Z,99.99
2018-08-09T04:21:56.307Z,99.99
2018-08-09T04:22:56.312Z,99.99
2018-08-09T04:23:56.312Z,99.99
2018-08-09T04:24:56.316Z,99.99
2018-08-09T04:25:56.318Z,99.99
2018-08-09T04:26:56.323Z,99.99
2018-08-09T04:27:56.325Z,99.99
2018-08-09T04:28:56.330Z,99.99
2018-08-09T04:29:56.330Z,99.99
2018-08-09T04:30:56.334Z,99.99
2018-08-09T04:31:56.335Z,99.99
2018-08-09T04:32:56.340Z,99.99
2018-08-09T04:33:56.344Z,99.99
2018-08-09T04:34:56.349Z,99.99
2018-08-09T04:35:56.357Z,99.99
2018-08-09T04:36:56.351Z,99.99
2018-08-09T04:37:56.422Z,99.99
2018-08-09T04:38:56.359Z,99.99
2018-08-09T04:39:56.360Z,99.99
2018-08-09T04:40:56.366Z,99.99
2018-08-09T04:41:56.366Z,99.99
2018-08-09T04:42:56.373Z,99.99
2018-08-09T04:43:56.373Z,99.99
2018-08-09T04:44:56.377Z,99.99
2018-08-09T04:45:56.382Z,99.99
2018-08-09T04:46:56.385Z,99.99
2018-08-09T04:47:56.387Z,99.99
2018-08-09T04:48:56.392Z,99.99
2018-08-09T04:49:56.396Z,99.99
2018-08-09T04:50:56.398Z,99.99
2018-08-09T04:51:56.401Z,99.99
2018-08-09T04:52:56.404Z,99.99
2018-08-09T04:53:56.406Z,99.99
2018-08-09T04:54:56.411Z,99.99
2018-08-09T04:55:56.412Z,99.99
2018-08-09T04:56:56.417Z,99.99
2018-08-09T04:57:56.434Z,99.99
2018-08-09T04:58:58.339Z,99.99
2018-08-09T04:59:56.428Z,99.99
2018-08-09T05:00:56.433Z,99.99
2018-08-09T05:01:56.433Z,99.99
2018-08-09T05:02:56.435Z,99.99
2018-08-09T05:03:56.442Z,99.99
2018-08-09T05:04:56.444Z,99.99
2018-08-09T05:05:56.446Z,99.99
2018-08-09T05:06:56.450Z,99.99
2018-08-09T05:07:56.452Z,99.99
2018-08-09T05:08:56.459Z,99.99
2018-08-09T05:09:56.461Z,99.99
2018-08-09T05:10:56.464Z,99.99
2018-08-09T05:11:56.464Z,99.99
2018-08-09T05:12:56.470Z,99.99
2018-08-09T05:13:56.475Z,99.99
2018-08-09T05:14:56.479Z,99.99
2018-08-09T05:15:56.500Z,99.99
2018-08-09T05:16:56.485Z,99.99
2018-08-09T05:17:56.487Z,99.99
2018-08-09T05:18:56.490Z,99.99
2018-08-09T05:19:56.494Z,99.99
2018-08-09T05:20:56.498Z,99.99
2018-08-09T05:21:56.503Z,99.99
2018-08-09T05:22:56.505Z,99.99
2018-08-09T05:23:56.510Z,99.99
2018-08-09T05:24:56.517Z,99.99
2018-08-09T05:25:56.519Z,99.99
2018-08-09T05:26:56.519Z,99.99
2018-08-09T05:27:56.522Z,99.99
2018-08-09T05:28:56.536Z,99.99
2018-08-09T05:29:56.530Z,99.99
2018-08-09T05:30:56.536Z,99.99
2018-08-09T05:31:56.536Z,99.99
2018-08-09T05:32:56.548Z,99.99
2018-08-09T05:33:56.548Z,99.99
2018-08-09T05:34:56.552Z,99.99
2018-08-09T05:35:56.551Z,99.99
2018-08-09T05:36:56.558Z,99.99
2018-08-09T05:37:56.564Z,99.99
2018-08-09T05:38:56.566Z,99.99
2018-08-09T05:39:56.571Z,99.99
2018-08-09T05:40:56.572Z,99.99
2018-08-09T05:41:56.580Z,99.99
2018-08-09T05:42:56.580Z,99.99
2018-08-09T05:43:56.590Z,99.99
2018-08-09T05:44:56.588Z,99.99
2018-08-09T05:45:56.592Z,99.99
2018-08-09T05:46:56.603Z,99.99
2018-08-09T05:47:56.598Z,99.99
2018-08-09T05:48:56.605Z,99.99
2018-08-09T05:49:56.608Z,99.99
2018-08-09T05:50:56.613Z,99.99
2018-08-09T05:51:56.616Z,99.99
2018-08-09T05:52:56.708Z,99.99
2018-08-09T05:53:56.625Z,99.99
2018-08-09T05:54:56.631Z,99.99
2018-08-09T05:55:56.634Z,99.99
2018-08-09T05:56:56.642Z,99.99
2018-08-09T05:57:56.642Z,99.99
2018-08-09T05:58:56.653Z,99.99
2018-08-09T05:59:56.651Z,99.26
2018-08-09T06:00:56.656Z,96.36
2018-08-09T06:01:56.662Z,94.38
2018-08-09T06:02:56.666Z,93.42
2018-08-09T06:03:56.670Z,90.77
2018-08-09T06:04:56.683Z,89.75
2018-08-09T06:05:56.679Z,86.60
2018-08-09T06:06:56.683Z,84.17
2018-08-09T06:07:56.687Z,82.18
2018-08-09T06:08:56.690Z,80.19
2018-08-09T06:09:56.696Z,77.70
2018-08-09T06:10:56.701Z,75.81
2018-08-09T06:11:56.710Z,74.26
2018-08-09T06:12:56.711Z,73.71
2018-08-09T06:13:56.716Z,72.55
2018-08-09T06:14:56.726Z,71.58
2018-08-09T06:15:56.726Z,70.54
2018-08-09T06:16:56.747Z,70.64
2018-08-09T06:17:56.737Z,70.48
2018-08-09T06:18:56.757Z,70.57
2018-08-09T06:19:56.779Z,70.77
2018-08-09T06:20:56.753Z,69.93
2018-08-09T06:21:56.759Z,68.96
2018-08-09T06:22:56.764Z,67.60
2018-08-09T06:23:56.769Z,67.41
2018-08-09T06:24:56.775Z,67.11
2018-08-09T06:25:56.780Z,66.44
2018-08-09T06:26:56.786Z,66.72
2018-08-09T06:27:56.794Z,67.76
2018-08-09T06:28:57.361Z,67.11
2018-08-09T06:29:56.802Z,66.72
2018-08-09T06:30:56.809Z,66.72
2018-08-09T06:31:56.813Z,66.44
2018-08-09T06:32:56.821Z,66.82
2018-08-09T06:33:56.827Z,67.02
2018-08-09T06:34:56.833Z,66.44
2018-08-09T06:35:56.837Z,66.24
2018-08-09T06:36:56.845Z,66.30
2018-08-09T06:37:56.852Z,67.83
2018-08-09T06:38:56.857Z,68.70
2018-08-09T06:39:56.865Z,69.57
2018-08-09T06:40:56.867Z,69.18
2018-08-09T06:41:56.876Z,68.99
2018-08-09T06:42:56.882Z,67.89
2018-08-09T06:43:56.888Z,67.57
2018-08-09T06:44:56.894Z,67.89
2018-08-09T06:45:56.901Z,67.47
2018-08-09T06:46:56.911Z,67.41
2018-08-09T06:47:56.916Z,66.76
2018-08-09T06:48:56.924Z,65.27
2018-08-09T06:49:56.931Z,62.84
2018-08-09T06:50:56.937Z,62.09
2018-08-09T06:51:56.940Z,61.60
2018-08-09T06:52:56.947Z,61.54
2018-08-09T06:53:56.953Z,62.09
2018-08-09T06:54:56.960Z,63.13
2018-08-09T06:55:56.968Z,64.17
2018-08-09T06:56:56.975Z,65.72
2018-08-09T06:57:56.982Z,65.50
2018-08-09T06:58:56.992Z,65.30
2018-08-09T06:59:56.995Z,65.30
2018-08-09T07:00:57.006Z,65.47
2018-08-09T07:01:57.013Z,65.95
2018-08-09T07:02:57.022Z,66.92
2018-08-09T07:03:57.032Z,67.47
2018-08-09T07:04:57.034Z,68.25
2018-08-09T07:05:57.042Z,69.38
2018-08-09T07:06:57.092Z,69.67
2018-08-09T07:07:57.059Z,70.12
2018-08-09T07:08:57.063Z,70.31
2018-08-09T07:09:57.071Z,70.03
2018-08-09T07:10:57.077Z,70.21
2018-08-09T07:11:57.085Z,70.90
2018-08-09T07:19:17.067Z,72.96
2018-08-09T07:20:17.046Z,73.64
2018-08-09T07:22:10.182Z,74.66
2018-08-09T07:23:10.168Z,75.05
2018-08-09T07:25:03.090Z,75.54
2018-08-09T07:26:03.052Z,75.92
2018-08-09T07:27:55.960Z,76.06
2018-08-09T07:28:55.977Z,75.05
2018-08-09T07:30:49.825Z,74.76
2018-08-09T07:31:49.813Z,74.70
2018-08-09T07:33:42.718Z,74.60
2018-08-09T07:34:42.699Z,74.60
2018-08-09T07:36:35.658Z,74.90
2018-08-09T07:37:35.589Z,73.48
2018-08-09T07:39:28.594Z,72.51
2018-08-09T07:40:28.477Z,72.99
2018-08-09T07:42:21.406Z,71.36
2018-08-09T07:43:21.367Z,68.70
2018-08-09T07:45:14.270Z,65.98
2018-08-09T07:46:14.276Z,64.29
2018-08-09T07:48:07.167Z,61.89
2018-08-09T07:49:07.152Z,60.88
2018-08-09T07:51:00.090Z,56.93
2018-08-09T07:52:00.059Z,56.65
2018-08-09T07:53:53.098Z,59.72
2018-08-09T07:54:53.065Z,60.00
2018-08-09T07:56:46.028Z,61.70
2018-08-09T07:57:45.970Z,63.13
2018-08-09T07:59:38.882Z,62.45
2018-08-09T08:00:38.834Z,62.97
2018-08-09T08:02:31.742Z,65.75
2018-08-09T08:03:31.740Z,66.53
2018-08-09T08:04:31.750Z,66.56
2018-08-09T08:05:31.747Z,66.60
2018-08-09T08:06:31.791Z,65.56
2018-08-09T08:07:31.760Z,65.46
2018-08-09T08:08:31.834Z,64.23
2018-08-09T08:09:31.780Z,62.19
2018-08-09T08:10:31.788Z,61.44
2018-08-09T08:11:31.797Z,59.26
2018-08-09T08:12:31.810Z,59.23
2018-08-09T08:13:31.815Z,59.59
2018-08-09T08:14:31.821Z,60.00
2018-08-09T08:15:31.832Z,59.67
2018-08-09T08:16:31.840Z,57.82
2018-08-09T08:17:31.853Z,58.04
2018-08-09T08:18:31.860Z,57.07
2018-08-09T08:19:31.872Z,57.04
2018-08-09T08:20:31.880Z,58.97
2018-08-09T08:21:31.888Z,58.50
2018-08-09T08:22:31.901Z,57.95
2018-08-09T08:23:31.911Z,57.65
2018-08-09T08:24:31.921Z,57.75
2018-08-09T08:25:31.932Z,56.77
2018-08-09T08:26:31.940Z,56.56
2018-08-09T08:27:31.953Z,58.58
2018-08-09T08:28:31.966Z,58.58
2018-08-09T08:29:31.976Z,58.48
2018-08-09T08:30:31.986Z,58.40
2018-08-09T08:31:31.996Z,57.85
2018-08-09T08:32:32.011Z,57.56
2018-08-09T08:33:32.026Z,57.04
2018-08-09T08:34:32.094Z,56.65
2018-08-09T08:35:32.045Z,58.54
2018-08-09T08:36:32.062Z,58.81
2018-08-09T08:37:32.069Z,58.84
2018-08-09T08:38:32.082Z,58.45
2018-08-09T08:39:32.093Z,58.48
2018-08-09T08:40:32.121Z,57.01
2018-08-09T08:41:32.203Z,57.01
2018-08-09T08:42:32.130Z,57.21
2018-08-09T08:43:32.144Z,58.18
2018-08-09T08:44:32.154Z,57.01
2018-08-09T08:45:32.167Z,57.24
2018-08-09T08:46:32.180Z,56.77
2018-08-09T08:47:32.229Z,57.07
2018-08-09T08:48:32.239Z,56.77
2018-08-09T08:49:32.219Z,55.41
2018-08-09T08:50:32.234Z,55.41
2018-08-09T08:51:32.243Z,55.68
2018-08-09T08:52:32.260Z,55.97
2018-08-09T08:53:32.271Z,56.16
2018-08-09T08:54:32.286Z,56.43
2018-08-09T08:55:32.299Z,56.82
2018-08-09T08:56:32.312Z,57.31
2018-08-09T08:57:32.323Z,56.43
2018-08-09T08:58:32.340Z,57.24
2018-08-09T09:00:26.233Z,56.58
2018-08-09T09:01:26.251Z,56.48
2018-08-09T09:03:19.713Z,56.12
2018-08-09T09:04:19.729Z,55.73
2018-08-09T09:06:13.129Z,54.30
2018-08-09T09:09:04.570Z,53.22
2018-08-09T09:10:04.559Z,53.61
2018-08-09T09:11:57.464Z,53.83
2018-08-09T09:12:57.461Z,53.64
2018-08-09T09:14:50.392Z,53.81
2018-08-09T09:15:50.379Z,53.81
2018-08-09T09:17:43.281Z,53.81
2018-08-09T09:18:43.348Z,53.74
2018-08-09T09:20:36.204Z,52.76
2018-08-09T09:21:36.257Z,52.39
2018-08-09T09:23:29.729Z,52.95
2018-08-09T09:24:29.248Z,52.47
2018-08-09T09:26:22.137Z,53.47
2018-08-09T09:27:22.043Z,52.22
2018-08-09T09:29:15.497Z,51.61
2018-08-09T09:30:15.516Z,51.93
2018-08-09T09:32:08.405Z,51.54
2018-08-09T09:33:08.406Z,52.00
2018-08-09T09:35:01.387Z,52.15
2018-08-09T09:36:01.334Z,52.15
2018-08-09T09:37:54.270Z,52.34
2018-08-09T09:38:54.208Z,51.20
2018-08-09T09:40:47.109Z,50.81
2018-08-09T09:41:47.112Z,50.93
2018-08-09T09:43:40.050Z,51.54
2018-08-09T09:44:40.040Z,51.76
2018-08-09T09:45:40.052Z,51.29
2018-08-09T09:46:40.046Z,50.81
2018-08-09T09:47:40.057Z,50.71
2018-08-09T09:48:40.070Z,50.90
2018-08-09T09:49:40.089Z,51.25
2018-08-09T09:50:40.091Z,52.12
2018-08-09T09:51:40.103Z,51.83
2018-08-09T09:52:40.114Z,51.83
2018-08-09T09:53:40.126Z,51.44
2018-08-09T09:54:40.136Z,51.66
2018-08-09T09:55:40.148Z,52.47
2018-08-09T09:56:40.163Z,51.66
2018-08-09T09:57:40.173Z,51.78
2018-08-09T09:58:40.180Z,52.10
2018-08-09T09:59:40.189Z,49.65
2018-08-09T10:00:40.202Z,49.38
2018-08-09T10:01:40.218Z,49.87
2018-08-09T10:02:40.222Z,48.82
2018-08-09T10:03:40.233Z,48.52
2018-08-09T10:04:40.261Z,48.92
2018-08-09T10:05:40.256Z,47.84
2018-08-09T10:06:40.269Z,47.81
2018-08-09T10:07:40.279Z,48.41
2018-08-09T10:08:40.290Z,49.26
2018-08-09T10:09:40.299Z,49.36
2018-08-09T10:10:40.310Z,49.99
2018-08-09T10:11:40.321Z,50.90
2018-08-09T10:12:40.368Z,50.90
2018-08-09T10:13:40.343Z,50.15
2018-08-09T10:14:40.354Z,49.36
2018-08-09T10:15:40.367Z,49.95
2018-08-09T10:16:40.374Z,49.97
2018-08-09T10:17:40.386Z,49.09
2018-08-09T10:18:40.397Z,49.77
2018-08-09T10:19:40.432Z,49.29
2018-08-09T10:20:40.419Z,48.41
2018-08-09T10:21:40.432Z,48.97
2018-08-09T10:22:40.439Z,49.36
2018-08-09T10:23:40.452Z,50.10
2018-08-09T10:24:40.461Z,50.32
2018-08-09T10:25:40.477Z,49.95
2018-08-09T10:26:40.483Z,49.95
2018-08-09T10:27:40.494Z,49.82
2018-08-09T10:28:40.503Z,50.04
2018-08-09T10:29:40.515Z,49.58
2018-08-09T10:30:40.525Z,48.72
2018-08-09T10:31:40.535Z,48.52
2018-08-09T10:32:40.550Z,48.33
2018-08-09T10:33:41.271Z,48.06
2018-08-09T10:34:40.564Z,48.45
2018-08-09T10:35:40.582Z,46.95
2018-08-09T10:36:40.610Z,48.30
2018-08-09T10:37:40.601Z,48.01
2018-08-09T10:38:40.608Z,48.43
2018-08-09T10:39:40.619Z,48.11
2018-08-09T10:40:40.646Z,48.30
2018-08-09T10:41:40.641Z,47.84
2018-08-09T10:42:40.695Z,48.13
2018-08-09T10:43:40.660Z,47.84
2018-08-09T10:44:40.672Z,47.06
2018-08-09T10:45:40.688Z,47.25
2018-08-09T10:46:40.695Z,47.64
2018-08-09T10:47:40.704Z,47.57
2018-08-09T10:48:40.714Z,46.61
2018-08-09T10:49:40.724Z,46.91
2018-08-09T10:50:40.733Z,46.31
2018-08-09T10:51:40.746Z,45.31
2018-08-09T10:52:40.770Z,46.08
2018-08-09T10:53:40.769Z,46.56
2018-08-09T10:54:40.775Z,46.98
2018-08-09T10:55:40.833Z,46.10
2018-08-09T10:56:40.796Z,46.02
2018-08-09T10:57:40.808Z,45.43
2018-08-09T10:58:40.820Z,45.45
2018-08-09T10:59:40.829Z,45.45
2018-08-09T11:00:40.838Z,45.77
2018-08-09T11:01:40.932Z,45.10
2018-08-09T11:02:40.858Z,44.98
2018-08-09T11:03:40.879Z,45.06
2018-08-09T11:04:40.890Z,45.63
2018-08-09T11:05:40.900Z,45.61
2018-08-09T11:06:40.902Z,45.83
2018-08-09T11:07:41.049Z,45.63
2018-08-09T11:08:40.988Z,45.70
2018-08-09T11:09:40.936Z,45.78
2018-08-09T11:10:40.943Z,46.56
2018-08-09T11:11:40.957Z,47.23
2018-08-09T11:12:40.965Z,47.99
2018-08-09T11:13:40.993Z,47.42
2018-08-09T11:14:40.987Z,46.95
2018-08-09T11:15:40.997Z,46.08
2018-08-09T11:16:41.009Z,46.47
2018-08-09T11:17:41.018Z,45.86
2018-08-09T11:18:41.029Z,45.66
2018-08-09T11:19:41.039Z,46.54
2018-08-09T11:20:41.049Z,46.52
2018-08-09T11:21:41.059Z,46.74
2018-08-09T11:22:41.125Z,46.64
2018-08-09T11:23:41.140Z,46.56
2018-08-09T11:24:41.090Z,46.56
2018-08-09T11:25:41.100Z,46.20
2018-08-09T11:26:41.111Z,46.00
2018-08-09T11:27:41.220Z,45.61
2018-08-09T11:28:41.139Z,45.70
2018-08-09T11:29:41.155Z,45.43
2018-08-09T11:30:41.154Z,45.16
2018-08-09T11:31:41.162Z,45.14
2018-08-09T11:32:41.173Z,43.49
2018-08-09T11:33:41.184Z,43.49
2018-08-09T11:34:41.198Z,43.29
2018-08-09T11:35:41.203Z,43.37
2018-08-09T11:36:41.231Z,44.13
2018-08-09T11:37:41.226Z,44.73
2018-08-09T11:38:41.238Z,44.90
2018-08-09T11:39:41.250Z,45.37
2018-08-09T11:40:41.258Z,46.64
2018-08-09T11:41:41.267Z,46.91
2018-08-09T11:42:41.277Z,47.20
2018-08-09T11:43:41.290Z,46.44
2018-08-09T11:44:42.137Z,46.25
2018-08-09T11:45:41.330Z,44.60
2018-08-09T11:46:41.318Z,44.12
2018-08-09T11:47:41.331Z,44.16
2018-08-09T11:48:41.341Z,42.58
2018-08-09T11:49:41.464Z,41.14
2018-08-09T11:50:41.358Z,40.90
2018-08-09T11:51:41.371Z,41.78
2018-08-09T11:52:41.381Z,41.21
2018-08-09T11:53:41.391Z,41.53
2018-08-09T11:54:41.409Z,40.84
2018-08-09T11:55:41.417Z,39.78
2018-08-09T11:56:41.470Z,40.09
2018-08-09T11:57:41.434Z,39.80
2018-08-09T11:58:41.442Z,39.21
2018-08-09T11:59:41.453Z,38.72
2018-08-09T12:00:41.463Z,38.82
2018-08-09T12:01:41.568Z,39.40
2018-08-09T12:02:41.486Z,39.09
2018-08-09T12:03:41.503Z,39.40
2018-08-09T12:04:41.509Z,38.60
2018-08-09T12:05:41.517Z,37.62
2018-08-09T12:06:41.527Z,36.75
2018-08-09T12:07:41.537Z,36.85
2018-08-09T12:08:41.549Z,37.46
2018-08-09T12:09:41.559Z,38.05
2018-08-09T12:10:41.593Z,39.25
2018-08-09T12:11:41.711Z,37.49
2018-08-09T12:12:41.685Z,36.38
2018-08-09T12:13:41.601Z,38.23
2018-08-09T12:14:41.628Z,39.40
2018-08-09T12:15:41.622Z,36.95
2018-08-09T12:16:41.632Z,35.99
2018-08-09T12:17:41.642Z,36.38
2018-08-09T12:18:41.653Z,36.65
2018-08-09T12:19:41.663Z,35.47
2018-08-09T12:20:41.779Z,34.99
2018-08-09T12:21:41.686Z,35.16
2018-08-09T12:22:41.702Z,35.62
2018-08-09T12:23:41.714Z,35.52
2018-08-09T12:24:41.723Z,36.11
2018-08-09T12:25:41.728Z,36.19
2018-08-09T12:26:41.780Z,36.78
2018-08-09T12:27:41.749Z,36.57
2018-08-09T12:28:41.759Z,36.86
2018-08-09T12:29:41.768Z,36.96
2018-08-09T12:30:41.779Z,37.27
2018-08-09T12:31:41.787Z,36.80
2018-08-09T12:32:41.932Z,35.83
2018-08-09T12:33:41.812Z,36.05
2018-08-09T12:34:41.818Z,35.46
2018-08-09T12:35:41.830Z,34.67
2018-08-09T12:36:41.887Z,35.08
2018-08-09T12:37:41.852Z,36.07
2018-08-09T12:38:41.864Z,36.15
2018-08-09T12:39:41.872Z,36.63
2018-08-09T12:40:41.886Z,37.40
2018-08-09T12:41:41.894Z,37.58
2018-08-09T12:42:41.900Z,37.30
2018-08-09T12:43:41.912Z,37.01
2018-08-09T12:44:41.928Z,37.03
2018-08-09T12:45:41.951Z,36.05
2018-08-09T12:46:41.942Z,36.34
2018-08-09T12:47:41.954Z,36.40
2018-08-09T12:48:41.963Z,36.90
2018-08-09T12:49:41.972Z,37.56
2018-08-09T12:50:42.004Z,37.76
2018-08-09T12:51:41.993Z,38.53
2018-08-09T12:52:42.004Z,38.23
2018-08-09T12:53:42.014Z,39.01
2018-08-09T12:54:42.025Z,39.11
2018-08-09T12:55:42.035Z,38.62
2018-08-09T12:56:42.044Z,39.11
2018-08-09T12:57:42.053Z,38.72
2018-08-09T12:58:42.063Z,39.03
2018-08-09T12:59:42.071Z,38.93
2018-08-09T13:00:42.109Z,37.98
2018-08-09T13:01:42.095Z,36.34
2018-08-09T13:02:42.119Z,34.67
2018-08-09T13:03:42.137Z,34.77
2018-08-09T13:04:42.127Z,34.58
2018-08-09T13:05:42.264Z,35.66
2018-08-09T13:06:42.146Z,35.46
2018-08-09T13:07:42.156Z,36.52
2018-08-09T13:08:42.161Z,36.52
2018-08-09T13:09:42.269Z,36.60
2018-08-09T13:10:42.182Z,36.70
2018-08-09T13:11:42.197Z,37.38
2018-08-09T13:12:42.202Z,36.70
2018-08-09T13:13:42.211Z,36.98
2018-08-09T13:14:42.223Z,37.07
2018-08-09T13:15:42.282Z,37.46
2018-08-09T13:16:42.242Z,37.46
2018-08-09T13:17:42.257Z,36.98
2018-08-09T13:18:42.267Z,36.98
2018-08-09T13:19:42.271Z,37.07
2018-08-09T13:20:42.282Z,37.25
2018-08-09T13:21:42.290Z,37.15
2018-08-09T13:22:42.300Z,35.96
2018-08-09T13:23:42.308Z,34.88
2018-08-09T13:24:42.321Z,35.08
2018-08-09T13:25:42.328Z,35.86
2018-08-09T13:26:42.340Z,36.55
2018-08-09T13:27:42.349Z,37.41